sensor_id;sensor_type;location;lat;lon;timestamp;pressure;altitude;pressure_sealevel;temperature;humidity
26839;BME280;40088;51.214;6.786;2022-12-29T00:03:07;100051.06;;;17.13;55.12
26839;BME280;40088;51.214;6.786;2022-12-29T00:13:07;100036.47;;;17.12;55.39
26839;BME280;40088;51.214;6.786;2022-12-29T00:23:26;100017.19;;;17.12;55.21
26839;BME280;40088;51.214;6.786;2022-12-29T00:33:45;99994.34;;;17.12;55.22
26839;BME280;40088;51.214;6.786;2022-12-29T00:44:05;99997.94;;;17.12;55.28
26839;BME280;40088;51.214;6.786;2022-12-29T00:54:05;99977.81;;;17.12;55.27
26839;BME280;40088;51.214;6.786;2022-12-29T01:04:06;99964.06;;;17.12;55.41
26839;BME280;40088;51.214;6.786;2022-12-29T01:14:07;99965.97;;;17.11;55.39
26839;BME280;40088;51.214;6.786;2022-12-29T01:24:07;99976.97;;;17.11;55.30
26839;BME280;40088;51.214;6.786;2022-12-29T01:34:08;99969.75;;;17.10;55.29
26839;BME280;40088;51.214;6.786;2022-12-29T01:54:51;99956.00;;;17.10;55.50
26839;BME280;40088;51.214;6.786;2022-12-29T02:04:55;99948.59;;;17.11;55.52
26839;BME280;40088;51.214;6.786;2022-12-29T02:15:00;99948.59;;;17.11;55.45
26839;BME280;40088;51.214;6.786;2022-12-29T02:56:21;99887.16;;;17.10;55.54
26839;BME280;40088;51.214;6.786;2022-12-29T03:07:01;99885.50;;;17.09;55.57
26839;BME280;40088;51.214;6.786;2022-12-29T03:17:09;99886.31;;;17.10;55.55
26839;BME280;40088;51.214;6.786;2022-12-29T03:27:19;99863.47;;;17.09;55.63
26839;BME280;40088;51.214;6.786;2022-12-29T03:37:27;99871.72;;;17.09;55.65
26839;BME280;40088;51.214;6.786;2022-12-29T03:47:28;99863.47;;;17.09;55.68
26839;BME280;40088;51.214;6.786;2022-12-29T03:57:29;99849.69;;;17.09;55.63
26839;BME280;40088;51.214;6.786;2022-12-29T04:07:29;99809.25;;;17.10;55.62
26839;BME280;40088;51.214;6.786;2022-12-29T04:17:29;99838.50;;;17.11;55.59
26839;BME280;40088;51.214;6.786;2022-12-29T04:27:29;99852.25;;;17.11;55.69
26839;BME280;40088;51.214;6.786;2022-12-29T04:37:30;99843.13;;;17.10;55.77
26839;BME280;40088;51.214;6.786;2022-12-29T04:47:30;99846.75;;;17.11;55.53
26839;BME280;40088;51.214;6.786;2022-12-29T04:57:30;99857.75;;;17.11;55.84
26839;BME280;40088;51.214;6.786;2022-12-29T05:07:31;99861.34;;;17.11;55.76
26839;BME280;40088;51.214;6.786;2022-12-29T05:17:33;99859.44;;;17.12;55.74
26839;BME280;40088;51.214;6.786;2022-12-29T05:27:34;99875.13;;;17.11;55.91
26839;BME280;40088;51.214;6.786;2022-12-29T05:37:35;99874.06;;;17.12;55.83
26839;BME280;40088;51.214;6.786;2022-12-29T05:47:35;99874.06;;;17.12;55.76
26839;BME280;40088;51.214;6.786;2022-12-29T05:57:35;99868.53;;;17.12;55.64
26839;BME280;40088;51.214;6.786;2022-12-29T06:07:35;99905.19;;;17.13;55.67
26839;BME280;40088;51.214;6.786;2022-12-29T06:17:36;99908.78;;;17.13;55.81
26839;BME280;40088;51.214;6.786;2022-12-29T06:27:36;99918.09;;;17.12;55.77
26839;BME280;40088;51.214;6.786;2022-12-29T06:37:36;99957.47;;;17.13;55.80
26839;BME280;40088;51.214;6.786;2022-12-29T06:47:37;99958.53;;;17.12;55.88
26839;BME280;40088;51.214;6.786;2022-12-29T06:57:37;99951.13;;;17.12;55.74
26839;BME280;40088;51.214;6.786;2022-12-29T07:07:37;99964.91;;;17.12;55.74
26839;BME280;40088;51.214;6.786;2022-12-29T07:17:38;99984.16;;;17.12;55.85
26839;BME280;40088;51.214;6.786;2022-12-29T07:27:38;99969.34;;;17.13;55.72
26839;BME280;40088;51.214;6.786;2022-12-29T07:37:38;99995.19;;;17.12;55.82
26839;BME280;40088;51.214;6.786;2022-12-29T07:47:38;100010.63;;;17.13;55.79
26839;BME280;40088;51.214;6.786;2022-12-29T07:57:39;100024.38;;;17.13;55.70
26839;BME280;40088;51.214;6.786;2022-12-29T08:07:39;100030.97;;;17.12;55.76
26839;BME280;40088;51.214;6.786;2022-12-29T08:17:39;100035.41;;;17.13;55.88
26839;BME280;40088;51.214;6.786;2022-12-29T08:27:40;100037.31;;;17.13;55.72
26839;BME280;40088;51.214;6.786;2022-12-29T08:37:40;100057.44;;;17.13;55.67
26839;BME280;40088;51.214;6.786;2022-12-29T08:47:40;100074.16;;;17.12;55.73
26839;BME280;40088;51.214;6.786;2022-12-29T08:57:40;100087.09;;;17.11;55.76
26839;BME280;40088;51.214;6.786;2022-12-29T09:07:41;100074.34;;;17.10;55.72
26839;BME280;40088;51.214;6.786;2022-12-29T09:17:41;100085.38;;;17.10;55.76
26839;BME280;40088;51.214;6.786;2022-12-29T09:27:44;100137.66;;;17.10;55.54
26839;BME280;40088;51.214;6.786;2022-12-29T09:37:44;100118.41;;;17.10;55.44
26839;BME280;40088;51.214;6.786;2022-12-29T09:47:46;100118.41;;;17.10;55.45
26839;BME280;40088;51.214;6.786;2022-12-29T09:57:51;100112.91;;;17.10;55.53
26839;BME280;40088;51.214;6.786;2022-12-29T10:18:37;100116.72;;;17.09;55.26
26839;BME280;40088;51.214;6.786;2022-12-29T10:28:55;100110.38;;;17.09;55.30
26839;BME280;40088;51.214;6.786;2022-12-29T10:39:18;100127.72;;;17.09;55.29
26839;BME280;40088;51.214;6.786;2022-12-29T10:49:21;100144.25;;;17.09;55.30
26839;BME280;40088;51.214;6.786;2022-12-29T10:59:28;100173.91;;;17.07;55.08
26839;BME280;40088;51.214;6.786;2022-12-29T11:09:33;100173.06;;;17.07;55.11
26839;BME280;40088;51.214;6.786;2022-12-29T11:19:35;100176.00;;;17.05;54.95
26839;BME280;40088;51.214;6.786;2022-12-29T11:29:40;100198.91;;;17.06;54.71
26839;BME280;40088;51.214;6.786;2022-12-29T11:39:58;100203.34;;;17.07;54.75
26839;BME280;40088;51.214;6.786;2022-12-29T11:50:06;100205.44;;;17.05;54.66
26839;BME280;40088;51.214;6.786;2022-12-29T12:00:19;100242.06;;;17.05;54.43
26839;BME280;40088;51.214;6.786;2022-12-29T12:10:24;100231.06;;;17.05;54.37
26839;BME280;40088;51.214;6.786;2022-12-29T12:20:38;100258.56;;;17.05;54.22
26839;BME280;40088;51.214;6.786;2022-12-29T12:30:47;100237.63;;;17.04;54.34
26839;BME280;40088;51.214;6.786;2022-12-29T12:41:00;100250.31;;;17.05;54.09
26839;BME280;40088;51.214;6.786;2022-12-29T12:51:27;100255.81;;;17.05;54.11
26839;BME280;40088;51.214;6.786;2022-12-29T13:01:52;100262.41;;;17.04;54.00
26839;BME280;40088;51.214;6.786;2022-12-29T13:22:35;100280.59;;;17.05;53.86
26839;BME280;40088;51.214;6.786;2022-12-29T13:32:55;100283.56;;;17.04;53.85
26839;BME280;40088;51.214;6.786;2022-12-29T13:43:00;100286.31;;;17.04;53.96
26839;BME280;40088;51.214;6.786;2022-12-29T14:13:26;100300.94;;;17.04;53.68
26839;BME280;40088;51.214;6.786;2022-12-29T14:23:34;100310.25;;;17.03;53.65
26839;BME280;40088;51.214;6.786;2022-12-29T14:33:36;100316.59;;;17.04;53.57
26839;BME280;40088;51.214;6.786;2022-12-29T14:43:36;100339.47;;;17.04;53.62
26839;BME280;40088;51.214;6.786;2022-12-29T14:53:46;100329.31;;;17.05;53.54
26839;BME280;40088;51.214;6.786;2022-12-29T15:03:50;100343.06;;;17.05;53.47
26839;BME280;40088;51.214;6.786;2022-12-29T15:13:51;100343.91;;;17.05;53.60
26839;BME280;40088;51.214;6.786;2022-12-29T15:23:52;100343.91;;;17.05;53.40
26839;BME280;40088;51.214;6.786;2022-12-29T15:33:54;100353.03;;;17.06;53.37
26839;BME280;40088;51.214;6.786;2022-12-29T15:44:16;100358.56;;;17.06;53.57
26839;BME280;40088;51.214;6.786;2022-12-29T15:54:21;100379.69;;;17.05;53.65
26839;BME280;40088;51.214;6.786;2022-12-29T16:04:24;100394.34;;;17.06;53.60
26839;BME280;40088;51.214;6.786;2022-12-29T16:14:41;100381.41;;;17.06;53.36
26839;BME280;40088;51.214;6.786;2022-12-29T16:24:43;100383.31;;;17.06;53.43
26839;BME280;40088;51.214;6.786;2022-12-29T16:34:45;100393.47;;;17.05;53.30
26839;BME280;40088;51.214;6.786;2022-12-29T16:44:45;100405.34;;;17.06;53.61
26839;BME280;40088;51.214;6.786;2022-12-29T16:54:52;100416.38;;;17.06;53.47
26839;BME280;40088;51.214;6.786;2022-12-29T17:04:53;100438.38;;;17.06;53.33
26839;BME280;40088;51.214;6.786;2022-12-29T17:14:54;100451.28;;;17.05;53.48
26839;BME280;40088;51.214;6.786;2022-12-29T17:24:58;100441.13;;;17.06;53.43
26839;BME280;40088;51.214;6.786;2022-12-29T17:34:58;100462.94;;;17.07;53.45
26839;BME280;40088;51.214;6.786;2022-12-29T17:45:00;100476.72;;;17.07;53.19
26839;BME280;40088;51.214;6.786;2022-12-29T17:55:01;100508.06;;;17.06;53.32
26839;BME280;40088;51.214;6.786;2022-12-29T18:05:02;100515.25;;;17.07;53.51
26839;BME280;40088;51.214;6.786;2022-12-29T18:15:02;100514.41;;;17.07;53.21
26839;BME280;40088;51.214;6.786;2022-12-29T18:25:20;100521.59;;;17.08;53.47
26839;BME280;40088;51.214;6.786;2022-12-29T18:35:27;100540.03;;;17.07;52.91
26839;BME280;40088;51.214;6.786;2022-12-29T18:45:31;100531.78;;;17.07;53.44
26839;BME280;40088;51.214;6.786;2022-12-29T18:55:32;100530.06;;;17.06;53.49
26839;BME280;40088;51.214;6.786;2022-12-29T19:05:37;100550.19;;;17.07;53.50
26839;BME280;40088;51.214;6.786;2022-12-29T19:15:38;100559.31;;;17.07;53.29
26839;BME280;40088;51.214;6.786;2022-12-29T19:25:38;100579.41;;;17.08;53.30
26839;BME280;40088;51.214;6.786;2022-12-29T19:35:39;100581.31;;;17.07;53.09
26839;BME280;40088;51.214;6.786;2022-12-29T19:45:40;100584.06;;;17.07;53.40
26839;BME280;40088;51.214;6.786;2022-12-29T19:55:45;100602.28;;;17.08;53.31
26839;BME280;40088;51.214;6.786;2022-12-29T20:05:47;100615.22;;;17.08;53.32
26839;BME280;40088;51.214;6.786;2022-12-29T20:15:48;100616.91;;;17.09;53.17
26839;BME280;40088;51.214;6.786;2022-12-29T20:25:53;100639.13;;;17.07;53.27
26839;BME280;40088;51.214;6.786;2022-12-29T20:35:54;100641.88;;;17.07;53.24
26839;BME280;40088;51.214;6.786;2022-12-29T20:46:02;100645.50;;;17.08;53.13
26839;BME280;40088;51.214;6.786;2022-12-29T20:56:14;100642.72;;;17.08;53.22
26839;BME280;40088;51.214;6.786;2022-12-29T21:06:15;100651.22;;;17.06;53.22
26839;BME280;40088;51.214;6.786;2022-12-29T21:16:16;100664.75;;;17.08;53.17
26839;BME280;40088;51.214;6.786;2022-12-29T21:26:22;100665.81;;;17.07;53.04
26839;BME280;40088;51.214;6.786;2022-12-29T21:36:23;100675.78;;;17.08;53.20
26839;BME280;40088;51.214;6.786;2022-12-29T21:46:24;100663.91;;;17.07;52.99
26839;BME280;40088;51.214;6.786;2022-12-29T21:56:24;100662.22;;;17.06;53.06
26839;BME280;40088;51.214;6.786;2022-12-29T22:06:25;100672.19;;;17.07;52.98
26839;BME280;40088;51.214;6.786;2022-12-29T22:16:44;100686.78;;;17.08;52.98
26839;BME280;40088;51.214;6.786;2022-12-29T22:26:44;100686.78;;;17.08;52.85
26839;BME280;40088;51.214;6.786;2022-12-29T22:36:44;100696.94;;;17.07;52.96
26839;BME280;40088;51.214;6.786;2022-12-29T22:46:45;100716.22;;;17.07;52.86
26839;BME280;40088;51.214;6.786;2022-12-29T22:56:45;100734.66;;;17.07;52.84
26839;BME280;40088;51.214;6.786;2022-12-29T23:06:45;100732.06;;;17.05;52.86
26839;BME280;40088;51.214;6.786;2022-12-29T23:16:46;100758.75;;;17.05;52.62
26839;BME280;40088;51.214;6.786;2022-12-29T23:26:46;100774.41;;;17.04;52.68
26839;BME280;40088;51.214;6.786;2022-12-29T23:36:47;100790.94;;;17.04;52.70
26839;BME280;40088;51.214;6.786;2022-12-29T23:46:47;100819.31;;;17.05;52.59
26839;BME280;40088;51.214;6.786;2022-12-29T23:56:48;100848.75;;;17.04;52.67
